Home   Weather   USA   West Yellowstone   Past weeks
Flag for USA

Past Weather in West Yellowstone, Montana, USA — Yesterday and Last 2 Weeks

Currently: 81 °F. Sunny. (Weather station: West Yellowstone Airport, USA). See more current weather

Past Weather in West Yellowstone — Graph

°F

West Yellowstone Temperature Yesterday

Maximum temperature yesterday: 73 °F (at 3:35 pm)
Minimum temperature yesterday: 30 °F (at 2:30 am)
Average temperature yesterday: 52 °F

High & Low Weather Summary for the Past Weeks

 TemperatureHumidityPressure
High84 °F (Jun 13, 3:15 pm)100% (May 30, 2:15 am)30.33 "Hg (May 30, 2:15 am)
Low23 °F (May 30, 5:55 am)8% (Jun 13, 5:10 pm)29.76 "Hg (Jun 5, 7:15 pm)
Average56 °F51%30.09 "Hg
* Reported May 29 7:15 pm — Jun 13 7:35 pm, West Yellowstone. Weather by CustomWeather, © 2021

Note: Actual official high and low records may vary slightly from our data, if they occured in-between our weather recording intervals... More about our weather records

West Yellowstone Weather History for the Previous 24 Hours

Scroll right to see more
 ConditionsComfort  
Time TempWeatherWind HumidityBarometerVisibility
7:35 pm
Sun, Jun 13
81 °FSunny.7 mph14%30.15 "Hg10 mi
7:15 pm82 °FSunny.9 mph13%30.14 "Hg10 mi
6:35 pm84 °FSunny.12 mph11%30.15 "Hg10 mi
6:15 pm84 °FSunny.7 mph11%30.15 "Hg10 mi
5:55 pm84 °FSunny.13 mph11%30.16 "Hg10 mi
5:35 pm84 °FSunny.6 mph10%30.16 "Hg10 mi
5:10 pm84 °FSunny.5 mph8%30.17 "Hg10 mi
4:50 pm84 °FSunny.13 mph10%30.17 "Hg10 mi
4:35 pm84 °FSunny.10 mph9%30.17 "Hg10 mi
4:15 pm84 °FSunny.9 mph10%30.18 "Hg10 mi
3:55 pm84 °FSunny.12 mph11%30.18 "Hg10 mi
3:35 pm82 °FSunny.9 mph14%30.18 "Hg10 mi
3:15 pm84 °FSunny.12 mph13%30.19 "Hg10 mi
2:55 pm82 °FPassing clouds.10 mph14%30.19 "Hg10 mi
2:30 pm82 °FScattered clouds.5 mph17%30.20 "Hg10 mi
2:15 pm81 °FPassing clouds.5 mph18%30.20 "Hg10 mi
1:35 pm81 °FSunny.5 mph18%30.21 "Hg10 mi
1:15 pm81 °FSunny.7 mph18%30.22 "Hg10 mi
12:55 pm79 °FSunny.8 mph20%30.23 "Hg10 mi
12:35 pm77 °FSunny.No wind21%30.24 "Hg10 mi
11:55 am75 °FSunny.No wind22%30.25 "Hg10 mi
11:35 am73 °FSunny.No wind27%30.25 "Hg10 mi
11:15 am72 °FSunny.3 mph29%30.26 "Hg10 mi
10:55 am70 °FSunny.5 mph33%30.26 "Hg10 mi
10:35 am66 °FSunny.3 mph35%30.27 "Hg10 mi
10:15 am64 °FSunny.3 mph37%30.28 "Hg10 mi
9:50 am61 °FSunny.3 mph42%30.28 "Hg10 mi
9:35 am61 °FSunny.No wind45%30.29 "Hg10 mi
9:15 am57 °FSunny.3 mph48%30.29 "Hg10 mi
8:55 am55 °FSunny.No wind51%30.29 "Hg10 mi
8:35 am52 °FSunny.No wind58%30.29 "Hg10 mi
8:10 am50 °FSunny.No wind62%30.29 "Hg10 mi
7:55 am48 °FSunny.No wind66%30.29 "Hg7 mi
7:35 am45 °FSunny.No wind76%30.29 "Hg10 mi
6:55 am39 °FSunny.No wind87%30.29 "Hg10 mi
6:35 am36 °FSunny.No wind93%30.28 "Hg10 mi
5:35 am32 °FClear.No wind100%30.27 "Hg10 mi
5:10 am32 °FClear.No wind100%30.26 "Hg8 mi
4:55 am34 °FClear.No wind93%30.26 "Hg10 mi
4:35 am34 °FFog.No wind93%30.25 "Hg6 mi
4:15 am34 °FClear.No wind93%30.25 "Hg10 mi
3:55 am34 °FClear.No wind100%30.25 "Hg10 mi
3:35 am36 °FFog.No wind93%30.24 "Hg5 mi
3:15 am36 °FClear.No wind93%30.24 "Hg7 mi
2:55 am36 °FClear.No wind93%30.24 "Hg9 mi
2:35 am37 °FFog.5 mph87%30.24 "Hg3 mi
1:55 am37 °FClear.No wind87%30.22 "Hg10 mi
1:30 am39 °FClear.No wind87%30.23 "Hg9 mi
1:15 am41 °FClear.No wind81%30.23 "Hg10 mi
12:30 am43 °FClear.No wind71%30.22 "Hg5 mi
12:10 am45 °FClear.No wind71%30.22 "Hg10 mi
11:55 pm
Sat, Jun 12
46 °FClear.No wind66%30.21 "Hg10 mi
11:35 pm48 °FClear.3 mph62%30.21 "Hg10 mi
11:10 pm50 °FClear.5 mph58%30.22 "Hg10 mi
10:55 pm52 °FClear.No wind54%30.21 "Hg10 mi
10:30 pm52 °FClear.5 mph54%30.21 "Hg10 mi
10:15 pm54 °FClear.3 mph51%30.21 "Hg10 mi
9:15 pm59 °FClear.7 mph42%30.19 "Hg10 mi
8:55 pm61 °FSunny.7 mph39%30.19 "Hg10 mi
8:35 pm66 °FSunny.9 mph30%30.19 "Hg10 mi
8:15 pm68 °FSunny.10 mph26%30.18 "Hg10 mi
Weather by CustomWeather, © 2021

See weather overview